createdAt,value
2018-12-22T00:01:50.034Z,5.15
2018-12-22T00:04:17.468Z,5.85
2018-12-22T00:06:44.975Z,5.80
2018-12-22T00:09:12.508Z,4.70
2018-12-22T00:11:39.939Z,5.42
2018-12-22T00:14:07.401Z,5.17
2018-12-22T00:16:34.827Z,5.33
2018-12-22T00:19:02.281Z,4.87
2018-12-22T00:21:29.708Z,5.47
2018-12-22T00:23:57.165Z,5.50
2018-12-22T00:26:24.639Z,4.47
2018-12-22T00:28:52.117Z,5.55
2018-12-22T00:31:19.571Z,4.50
2018-12-22T00:33:47.010Z,5.00
2018-12-22T00:36:14.559Z,5.12
2018-12-22T00:38:42.058Z,5.20
2018-12-22T00:41:09.497Z,5.05
2018-12-22T00:43:36.944Z,5.85
2018-12-22T00:46:04.386Z,5.78
2018-12-22T00:48:31.847Z,5.67
2018-12-22T00:50:59.293Z,5.03
2018-12-22T00:53:26.758Z,6.42
2018-12-22T00:55:54.223Z,4.95
2018-12-22T00:58:21.664Z,5.33
2018-12-22T01:00:49.125Z,6.28
2018-12-22T01:03:16.570Z,5.78
2018-12-22T01:05:44.021Z,5.28
2018-12-22T01:08:11.490Z,6.05
2018-12-22T01:10:38.959Z,5.72
2018-12-22T01:13:06.408Z,5.65
2018-12-22T01:15:33.877Z,6.45
2018-12-22T01:18:01.321Z,5.17
2018-12-22T01:20:28.868Z,4.83
2018-12-22T01:22:56.308Z,6.00
2018-12-22T01:25:23.769Z,5.62
2018-12-22T01:27:51.229Z,6.33
2018-12-22T01:30:18.683Z,5.47
2018-12-22T01:32:46.129Z,6.30
2018-12-22T01:35:13.595Z,6.40
2018-12-22T01:37:41.016Z,6.45
2018-12-22T01:40:08.472Z,6.30
2018-12-22T01:42:35.922Z,6.70
2018-12-22T01:45:03.390Z,6.70
2018-12-22T01:47:30.811Z,6.37
2018-12-22T01:49:58.271Z,6.55
2018-12-22T01:52:25.728Z,6.55
2018-12-22T01:54:53.380Z,6.90
2018-12-22T01:57:20.832Z,6.62
2018-12-22T01:59:48.288Z,6.47
2018-12-22T02:02:15.741Z,5.92
2018-12-22T02:04:43.212Z,6.45
2018-12-22T02:07:10.673Z,6.10
2018-12-22T02:09:38.131Z,5.55
2018-12-22T02:12:05.558Z,7.12
2018-12-22T02:14:33.020Z,4.65
2018-12-22T02:17:00.516Z,6.45
2018-12-22T02:19:27.972Z,7.17
2018-12-22T02:21:55.429Z,5.70
2018-12-22T02:24:22.892Z,6.35
2018-12-22T02:26:50.363Z,6.22
2018-12-22T02:29:17.787Z,6.90
2018-12-22T02:31:45.241Z,7.15
2018-12-22T02:34:12.839Z,5.40
2018-12-22T02:36:40.289Z,6.83
2018-12-22T02:39:07.734Z,7.60
2018-12-22T02:41:35.185Z,6.53
2018-12-22T02:44:02.644Z,7.42
2018-12-22T02:46:30.081Z,6.90
2018-12-22T02:48:57.542Z,7.50
2018-12-22T02:51:24.981Z,7.67
2018-12-22T02:53:52.430Z,6.30
2018-12-22T02:56:19.886Z,6.65
2018-12-22T02:58:47.332Z,7.20
2018-12-22T03:01:14.783Z,5.65
2018-12-22T03:03:42.278Z,5.87
2018-12-22T03:06:09.775Z,6.80
2018-12-22T03:08:37.271Z,7.55
2018-12-22T03:11:04.798Z,8.00
2018-12-22T03:13:32.289Z,6.95
2018-12-22T03:15:59.766Z,6.95
2018-12-22T03:18:27.257Z,7.87
2018-12-22T03:20:54.760Z,8.13
2018-12-22T03:23:22.340Z,7.15
2018-12-22T03:25:49.811Z,7.28
2018-12-22T03:28:17.344Z,6.80
2018-12-22T03:30:44.886Z,6.70
2018-12-22T03:33:12.357Z,8.28
2018-12-22T03:35:39.836Z,6.97
2018-12-22T03:38:07.302Z,7.72
2018-12-22T03:40:34.836Z,7.53
2018-12-22T03:43:02.330Z,7.45
2018-12-22T03:45:29.872Z,6.67
2018-12-22T03:47:57.332Z,6.92
2018-12-22T03:50:24.779Z,6.55
2018-12-22T03:52:52.313Z,6.10
2018-12-22T03:55:19.762Z,5.65
2018-12-22T03:57:47.292Z,6.20
2018-12-22T04:00:14.741Z,5.67
2018-12-22T04:02:42.189Z,6.80
2018-12-22T04:05:09.640Z,5.92
2018-12-22T04:07:37.096Z,4.90
2018-12-22T04:10:06.139Z,5.20
2018-12-22T04:12:33.617Z,5.65
2018-12-22T04:15:01.059Z,6.15
2018-12-22T04:17:28.497Z,6.00
2018-12-22T04:19:55.924Z,6.70
2018-12-22T04:22:23.380Z,5.72
2018-12-22T04:24:52.757Z,4.58
2018-12-22T04:27:20.213Z,5.37
2018-12-22T04:29:47.685Z,6.10
2018-12-22T04:32:15.150Z,5.55
2018-12-22T04:34:42.596Z,6.00
2018-12-22T04:37:10.051Z,6.70
2018-12-22T04:39:37.507Z,5.62
2018-12-22T04:42:04.967Z,4.10
2018-12-22T04:44:32.400Z,4.08
2018-12-22T04:46:59.956Z,4.62
2018-12-22T04:49:27.403Z,4.65
2018-12-22T04:51:54.899Z,4.50
2018-12-22T04:54:22.353Z,5.03
2018-12-22T04:56:49.819Z,5.30
2018-12-22T04:59:17.269Z,4.17
2018-12-22T05:01:44.749Z,3.62
2018-12-22T05:04:12.185Z,2.65
2018-12-22T05:06:39.636Z,3.30
2018-12-22T05:09:07.075Z,3.62
2018-12-22T05:11:34.541Z,2.87
2018-12-22T05:14:01.989Z,3.02
2018-12-22T05:16:29.443Z,3.05
2018-12-22T05:18:56.872Z,3.42
2018-12-22T05:21:24.328Z,3.50
2018-12-22T05:23:51.796Z,3.77
2018-12-22T05:26:19.258Z,3.62
2018-12-22T05:28:46.695Z,7.92
2018-12-22T05:31:14.162Z,5.22
2018-12-22T05:33:41.603Z,4.42
2018-12-22T05:36:09.043Z,3.35
2018-12-22T05:38:36.478Z,3.47
2018-12-22T05:41:03.949Z,4.05
2018-12-22T05:43:31.484Z,3.33
2018-12-22T05:45:58.969Z,4.37
2018-12-22T05:48:26.412Z,3.55
2018-12-22T05:50:53.874Z,3.20
2018-12-22T05:53:21.303Z,3.77
2018-12-22T05:55:48.747Z,3.58
2018-12-22T05:58:16.212Z,4.10
2018-12-22T06:00:43.660Z,3.55
2018-12-22T06:03:11.113Z,3.12
2018-12-22T06:05:38.568Z,3.60
2018-12-22T06:08:06.039Z,3.87
2018-12-22T06:10:33.468Z,3.22
2018-12-22T06:13:00.925Z,3.75
2018-12-22T06:15:28.370Z,3.40
2018-12-22T06:17:55.853Z,3.35
2018-12-22T06:20:23.287Z,3.90
2018-12-22T06:22:50.770Z,4.90
2018-12-22T06:25:18.304Z,4.00
2018-12-22T06:27:45.767Z,4.67
2018-12-22T06:30:13.191Z,3.58
2018-12-22T06:32:40.685Z,3.80
2018-12-22T06:35:08.105Z,4.22
2018-12-22T06:37:35.548Z,4.03
2018-12-22T06:40:04.580Z,3.58
2018-12-22T06:42:32.035Z,3.37
2018-12-22T06:44:59.465Z,3.52
2018-12-22T06:47:26.896Z,3.47
2018-12-22T06:49:54.352Z,4.08
2018-12-22T06:52:21.823Z,2.85
2018-12-22T06:54:49.269Z,2.15
2018-12-22T06:57:16.721Z,2.02
2018-12-22T06:59:44.203Z,2.45
2018-12-22T07:02:11.644Z,2.12
2018-12-22T07:04:39.087Z,3.47
2018-12-22T07:07:06.559Z,2.80
2018-12-22T07:09:34.005Z,2.62
2018-12-22T07:12:01.572Z,3.50
2018-12-22T07:14:29.021Z,3.02
2018-12-22T07:16:56.474Z,3.12
2018-12-22T07:19:24.010Z,3.00
2018-12-22T07:21:51.503Z,2.20
2018-12-22T07:24:18.935Z,2.50
2018-12-22T07:26:46.408Z,1.85
2018-12-22T07:29:13.851Z,2.02
2018-12-22T07:31:41.333Z,1.92
2018-12-22T07:34:08.775Z,2.08
2018-12-22T07:36:36.219Z,1.80
2018-12-22T07:39:06.106Z,1.72
2018-12-22T07:41:33.523Z,1.45
2018-12-22T07:44:00.973Z,1.60
2018-12-22T07:46:28.416Z,1.67
2018-12-22T07:48:56.889Z,1.67
2018-12-22T07:51:24.471Z,1.82
2018-12-22T07:53:51.918Z,1.70
2018-12-22T07:56:19.356Z,1.60
2018-12-22T07:58:46.812Z,1.70
2018-12-22T08:01:14.288Z,1.65
2018-12-22T08:03:41.743Z,1.55
2018-12-22T08:06:09.188Z,1.67
2018-12-22T08:08:36.643Z,1.70
2018-12-22T08:11:04.084Z,1.80
2018-12-22T08:13:31.565Z,1.57
2018-12-22T08:15:59.007Z,1.52
2018-12-22T08:18:26.478Z,1.60
2018-12-22T08:20:54.047Z,1.90
2018-12-22T08:23:21.599Z,1.70
2018-12-22T08:25:49.084Z,1.80
2018-12-22T08:28:16.512Z,1.92
2018-12-22T08:30:44.037Z,2.10
2018-12-22T08:33:11.532Z,2.20
2018-12-22T08:35:39.000Z,2.60
2018-12-22T08:38:06.445Z,2.00
2018-12-22T08:40:33.883Z,1.87
2018-12-22T08:43:01.417Z,1.82
2018-12-22T08:45:28.973Z,2.17
2018-12-22T08:47:56.541Z,1.80
2018-12-22T08:50:23.975Z,1.32
2018-12-22T08:52:51.493Z,1.40
2018-12-22T08:55:18.974Z,1.55
2018-12-22T08:57:46.407Z,1.52
2018-12-22T09:00:13.937Z,1.45
2018-12-22T09:02:41.383Z,1.98
2018-12-22T09:05:08.825Z,1.15
2018-12-22T09:07:36.284Z,1.20
2018-12-22T09:10:05.639Z,1.50
2018-12-22T09:12:33.080Z,1.40
2018-12-22T09:15:00.535Z,1.30
2018-12-22T09:17:28.178Z,1.30
2018-12-22T09:19:55.613Z,0.90
2018-12-22T09:22:23.087Z,1.15
2018-12-22T09:24:50.549Z,1.27
2018-12-22T09:27:18.094Z,1.07
2018-12-22T09:29:45.536Z,1.20
2018-12-22T09:32:13.042Z,1.50
2018-12-22T09:34:40.485Z,0.78
2018-12-22T09:37:08.123Z,0.80
2018-12-22T09:39:35.678Z,0.82
2018-12-22T09:42:03.197Z,0.78
2018-12-22T09:44:30.647Z,1.10
2018-12-22T09:46:58.076Z,0.62
2018-12-22T09:49:25.537Z,0.70
2018-12-22T09:51:52.991Z,0.60
2018-12-22T09:54:20.446Z,0.70
2018-12-22T09:56:48.372Z,0.68
2018-12-22T09:59:15.818Z,0.70
2018-12-22T10:01:43.484Z,0.72
2018-12-22T10:04:10.983Z,1.02
2018-12-22T10:06:38.441Z,1.22
2018-12-22T10:09:06.356Z,1.30
2018-12-22T10:11:33.796Z,1.50
2018-12-22T10:14:01.311Z,2.05
2018-12-22T10:16:28.771Z,1.82
2018-12-22T10:18:56.448Z,2.30
2018-12-22T10:21:23.900Z,3.47
2018-12-22T10:23:51.352Z,3.37
2018-12-22T10:26:18.831Z,3.52
2018-12-22T10:28:46.296Z,3.98
2018-12-22T10:31:17.927Z,3.17
2018-12-22T10:33:43.160Z,4.67
2018-12-22T10:36:10.617Z,3.25
2018-12-22T10:38:38.093Z,3.55
2018-12-22T10:41:05.625Z,2.85
2018-12-22T10:43:33.089Z,3.20
2018-12-22T10:46:00.512Z,3.27
2018-12-22T10:48:27.969Z,3.47
2018-12-22T10:50:55.419Z,2.70
2018-12-22T10:53:22.871Z,2.85
2018-12-22T10:55:50.346Z,2.52
2018-12-22T10:58:17.840Z,3.27
2018-12-22T11:00:45.275Z,2.95
2018-12-22T11:03:12.744Z,3.37
2018-12-22T11:05:40.195Z,3.22
2018-12-22T11:08:07.642Z,3.05
2018-12-22T11:10:35.117Z,2.83
2018-12-22T11:13:02.559Z,1.80
2018-12-22T11:15:30.088Z,3.37
2018-12-22T11:17:57.512Z,3.22
2018-12-22T11:20:24.971Z,2.50
2018-12-22T11:22:52.400Z,2.72
2018-12-22T11:25:19.858Z,3.30
2018-12-22T11:27:47.309Z,3.55
2018-12-22T11:30:19.241Z,3.00
2018-12-22T11:32:46.684Z,3.50
2018-12-22T11:35:14.138Z,2.70
2018-12-22T11:37:41.587Z,2.95
2018-12-22T11:40:10.055Z,3.98
2018-12-22T11:42:37.546Z,2.87
2018-12-22T11:45:08.503Z,2.20
2018-12-22T11:47:40.845Z,2.67
2018-12-22T11:50:18.670Z,2.35
2018-12-22T11:52:46.127Z,2.65
2018-12-22T11:55:13.584Z,2.50
2018-12-22T11:57:41.012Z,2.22
2018-12-22T12:00:09.878Z,2.47
2018-12-22T12:02:37.312Z,2.20
2018-12-22T12:05:07.844Z,1.80
2018-12-22T12:07:35.319Z,2.77
2018-12-22T12:10:02.771Z,2.50
2018-12-22T12:12:30.203Z,1.67
2018-12-22T12:14:57.655Z,2.45
2018-12-22T12:17:29.035Z,2.35
2018-12-22T12:19:56.509Z,2.27
2018-12-22T12:22:23.953Z,1.70
2018-12-22T12:24:51.412Z,2.15
2018-12-22T12:27:18.850Z,2.00
2018-12-22T12:29:46.352Z,2.10
2018-12-22T12:32:13.819Z,2.15
2018-12-22T12:34:41.264Z,2.05
2018-12-22T12:37:08.707Z,1.72
2018-12-22T12:39:36.140Z,1.40
2018-12-22T12:42:03.594Z,1.55
2018-12-22T12:44:31.240Z,1.60
2018-12-22T12:46:58.736Z,1.75
2018-12-22T12:49:26.159Z,1.30
2018-12-22T12:51:53.623Z,1.37
2018-12-22T12:54:21.101Z,1.60
2018-12-22T12:56:48.549Z,1.70
2018-12-22T12:59:16.028Z,1.95
2018-12-22T13:01:43.545Z,1.50
2018-12-22T13:04:10.977Z,1.60
2018-12-22T13:06:38.500Z,1.85
2018-12-22T13:09:06.701Z,1.62
2018-12-22T13:11:34.171Z,1.70
2018-12-22T13:14:01.789Z,2.50
2018-12-22T13:16:29.275Z,2.00
2018-12-22T13:18:56.724Z,2.05
2018-12-22T13:21:24.193Z,2.02
2018-12-22T13:23:51.632Z,1.57
2018-12-22T13:26:19.095Z,2.30
2018-12-22T13:28:46.577Z,2.02
2018-12-22T13:31:14.046Z,1.82
2018-12-22T13:33:41.520Z,2.02
2018-12-22T13:36:09.063Z,1.65
2018-12-22T13:38:36.535Z,1.40
2018-12-22T13:41:04.047Z,1.82
2018-12-22T13:43:31.529Z,1.90
2018-12-22T13:45:59.001Z,1.40
2018-12-22T13:48:26.561Z,1.77
2018-12-22T13:50:54.145Z,1.40
2018-12-22T13:53:21.724Z,1.10
2018-12-22T13:55:49.153Z,1.50
2018-12-22T13:58:16.656Z,1.75
2018-12-22T14:00:44.137Z,1.60
2018-12-22T14:03:11.655Z,1.37
2018-12-22T14:05:39.161Z,1.17
2018-12-22T14:08:06.607Z,1.77
2018-12-22T14:10:34.091Z,1.77
2018-12-22T14:13:01.720Z,1.80
2018-12-22T14:15:29.174Z,1.10
2018-12-22T14:21:00.627Z,1.35
2018-12-22T14:23:32.645Z,1.52
2018-12-22T14:26:00.125Z,1.15
2018-12-22T14:28:27.594Z,1.10
2018-12-22T14:30:55.145Z,1.00
2018-12-22T14:33:22.633Z,1.20
2018-12-22T14:35:50.225Z,1.30
2018-12-22T14:38:17.754Z,0.93
2018-12-22T14:40:45.282Z,3.45
2018-12-22T14:43:12.777Z,1.62
2018-12-22T14:45:40.963Z,1.40
2018-12-22T14:48:08.397Z,1.50
2018-12-22T14:50:35.931Z,1.47
2018-12-22T14:53:03.786Z,1.22
2018-12-22T14:55:31.334Z,1.67
2018-12-22T14:58:00.266Z,1.27
2018-12-22T15:00:27.783Z,1.40
2018-12-22T15:02:56.354Z,1.70
2018-12-22T15:05:23.846Z,1.70
2018-12-22T15:07:51.279Z,1.75
2018-12-22T15:10:18.751Z,1.10
2018-12-22T15:12:46.183Z,1.50
2018-12-22T15:15:13.774Z,1.27
2018-12-22T15:17:42.651Z,1.50
2018-12-22T15:20:23.569Z,1.35
2018-12-22T15:22:52.461Z,1.32
2018-12-22T15:25:19.965Z,1.20
2018-12-22T15:27:47.446Z,1.70
2018-12-22T15:30:14.923Z,1.10
2018-12-22T15:32:44.486Z,1.20
2018-12-22T15:35:11.840Z,1.52
2018-12-22T15:37:39.326Z,1.12
2018-12-22T15:40:10.282Z,1.20
2018-12-22T15:42:37.825Z,1.40
2018-12-22T15:45:09.711Z,1.92
2018-12-22T15:47:37.164Z,1.70
2018-12-22T15:50:08.594Z,2.58
2018-12-22T15:52:36.535Z,1.80
2018-12-22T15:55:06.395Z,1.92
2018-12-22T15:57:33.848Z,1.60
2018-12-22T16:00:01.404Z,1.60
2018-12-22T16:02:29.021Z,1.32
2018-12-22T16:04:56.587Z,1.90
2018-12-22T16:07:24.033Z,2.10
2018-12-22T16:09:51.487Z,2.12
2018-12-22T16:12:18.936Z,2.20
2018-12-22T16:14:46.383Z,1.75
2018-12-22T16:17:13.862Z,2.08
2018-12-22T16:19:41.334Z,1.70
2018-12-22T16:22:08.772Z,1.90
2018-12-22T16:24:36.221Z,1.70
2018-12-22T16:27:03.681Z,7.55
2018-12-22T16:29:31.144Z,13.38
2018-12-22T16:31:58.649Z,13.60
2018-12-22T16:34:26.174Z,5.62
2018-12-22T16:36:53.645Z,2.47
2018-12-22T16:39:21.061Z,2.20
2018-12-22T16:41:48.527Z,2.10
2018-12-22T16:44:16.073Z,1.70
2018-12-22T16:46:43.751Z,2.30
2018-12-22T16:49:11.200Z,1.55
2018-12-22T16:51:38.696Z,1.80
2018-12-22T16:54:06.316Z,1.80
2018-12-22T16:56:34.744Z,1.57
2018-12-22T16:59:02.607Z,1.87
2018-12-22T17:01:34.054Z,2.33
2018-12-22T17:04:01.534Z,2.00
2018-12-22T17:06:29.121Z,2.27
2018-12-22T17:08:56.572Z,2.10
2018-12-22T17:11:24.441Z,2.08
2018-12-22T17:13:52.056Z,2.02
2018-12-22T17:16:20.085Z,2.30
2018-12-22T17:18:47.557Z,2.47
2018-12-22T17:21:18.082Z,2.45
2018-12-22T17:23:57.374Z,2.30
2018-12-22T17:26:27.502Z,2.47
2018-12-22T17:28:54.993Z,2.70
2018-12-22T17:31:22.624Z,2.00
2018-12-22T17:33:50.113Z,2.40
2018-12-22T17:36:17.563Z,2.65
2018-12-22T17:38:45.004Z,2.17
2018-12-22T17:41:12.509Z,3.22
2018-12-22T17:43:40.048Z,3.87
2018-12-22T17:46:07.491Z,2.70
2018-12-22T17:48:34.942Z,2.50
2018-12-22T17:51:02.424Z,2.50
2018-12-22T17:53:29.868Z,2.50
2018-12-22T17:55:57.358Z,2.30
2018-12-22T17:58:24.800Z,2.87
2018-12-22T18:00:52.257Z,2.65
2018-12-22T18:03:27.227Z,2.83
2018-12-22T18:05:49.228Z,2.40
2018-12-22T18:08:16.684Z,3.05
2018-12-22T18:10:44.144Z,3.10
2018-12-22T18:13:11.588Z,2.95
2018-12-22T18:15:39.020Z,2.50
2018-12-22T18:18:06.545Z,2.62
2018-12-22T18:20:33.983Z,3.30
2018-12-22T18:23:01.419Z,2.95
2018-12-22T18:25:28.867Z,2.90
2018-12-22T18:27:56.474Z,2.80
2018-12-22T18:30:23.953Z,2.62
2018-12-22T18:32:51.414Z,8.55
2018-12-22T18:35:18.915Z,12.47
2018-12-22T18:37:46.464Z,9.05
2018-12-22T18:40:16.797Z,5.35
2018-12-22T18:42:45.477Z,4.33
2018-12-22T18:45:13.056Z,3.52
2018-12-22T18:47:40.952Z,3.55
2018-12-22T18:50:14.111Z,3.20
2018-12-22T18:52:41.609Z,5.00
2018-12-22T18:55:09.649Z,4.00
2018-12-22T18:57:38.274Z,4.37
2018-12-22T19:00:13.492Z,4.17
2018-12-22T19:02:40.923Z,5.28
2018-12-22T19:05:08.842Z,4.85
2018-12-22T19:07:36.282Z,6.00
2018-12-22T19:10:11.399Z,4.62
2018-12-22T19:12:38.853Z,3.70
2018-12-22T19:15:06.319Z,3.87
2018-12-22T19:17:33.789Z,3.10
2018-12-22T19:20:01.374Z,2.47
2018-12-22T19:22:29.143Z,2.55
2018-12-22T19:24:57.964Z,2.00
2018-12-22T19:27:25.447Z,1.82
2018-12-22T19:29:52.916Z,1.50
2018-12-22T19:32:20.384Z,1.77
2018-12-22T19:34:47.845Z,1.27
2018-12-22T19:37:15.462Z,1.42
2018-12-22T19:39:42.933Z,1.75
2018-12-22T19:42:10.382Z,1.77
2018-12-22T19:44:37.840Z,1.47
2018-12-22T19:47:05.317Z,1.60
2018-12-22T19:49:32.833Z,2.08
2018-12-22T19:52:00.315Z,1.55
2018-12-22T19:54:27.768Z,1.35
2018-12-22T19:56:55.227Z,1.30
2018-12-22T19:59:22.833Z,1.15
2018-12-22T20:01:50.288Z,1.40
2018-12-22T20:04:17.800Z,1.77
2018-12-22T20:06:45.276Z,1.40
2018-12-22T20:09:12.745Z,1.42
2018-12-22T20:11:40.240Z,1.80
2018-12-22T20:14:07.702Z,2.33
2018-12-22T20:16:35.157Z,2.58
2018-12-22T20:19:02.653Z,2.67
2018-12-22T20:21:30.113Z,2.50
2018-12-22T20:23:57.579Z,1.70
2018-12-22T20:26:25.105Z,2.42
2018-12-22T20:28:52.714Z,2.45
2018-12-22T20:31:20.317Z,2.40
2018-12-22T20:33:47.838Z,2.10
2018-12-22T20:36:16.320Z,3.37
2018-12-22T20:38:43.834Z,2.85
2018-12-22T20:41:11.458Z,3.52
2018-12-22T20:43:39.014Z,4.10
2018-12-22T20:46:06.615Z,4.25
2018-12-22T20:48:34.108Z,3.73
2018-12-22T20:51:01.785Z,4.03
2018-12-22T20:53:29.364Z,4.92
2018-12-22T20:55:57.946Z,5.35
2018-12-22T20:58:25.605Z,4.75
2018-12-22T21:00:53.190Z,4.37
2018-12-22T21:03:23.493Z,5.03
2018-12-22T21:05:53.099Z,5.25
2018-12-22T21:08:20.673Z,6.30
2018-12-22T21:10:48.255Z,5.05
2018-12-22T21:13:15.804Z,4.67
2018-12-22T21:15:43.313Z,6.35
2018-12-22T21:18:10.822Z,5.37
2018-12-22T21:20:38.361Z,5.42
2018-12-22T21:23:05.872Z,5.40
2018-12-22T21:25:33.366Z,4.90
2018-12-22T21:28:00.861Z,4.95
2018-12-22T21:30:28.334Z,5.17
2018-12-22T21:32:55.827Z,6.10
2018-12-22T21:35:23.343Z,6.00
2018-12-22T21:37:50.837Z,5.58
2018-12-22T21:40:18.321Z,5.75
2018-12-22T21:42:45.824Z,6.03
2018-12-22T21:45:13.283Z,5.90
2018-12-22T21:47:40.745Z,6.80
2018-12-22T21:50:08.213Z,5.33
2018-12-22T21:52:35.676Z,5.33
2018-12-22T21:55:03.146Z,6.12
2018-12-22T21:57:30.619Z,5.05
2018-12-22T21:59:58.074Z,5.12
2018-12-22T22:02:25.530Z,4.20
2018-12-22T22:04:53.617Z,5.17
2018-12-22T22:07:21.072Z,5.05
2018-12-22T22:09:48.533Z,4.83
2018-12-22T22:12:16.022Z,4.65
2018-12-22T22:14:43.495Z,3.67
2018-12-22T22:17:10.943Z,4.30
2018-12-22T22:19:38.405Z,4.87
2018-12-22T22:22:05.905Z,4.60
2018-12-22T22:24:33.368Z,4.10
2018-12-22T22:27:00.911Z,3.42
2018-12-22T22:29:28.493Z,5.28
2018-12-22T22:31:56.356Z,4.40
2018-12-22T22:34:23.800Z,4.28
2018-12-22T22:36:51.494Z,5.28
2018-12-22T22:39:18.993Z,4.05
2018-12-22T22:41:46.432Z,4.12
2018-12-22T22:44:13.912Z,3.37
2018-12-22T22:46:41.357Z,3.87
2018-12-22T22:49:08.808Z,4.55
2018-12-22T22:51:36.273Z,4.83
2018-12-22T22:54:03.813Z,3.77
2018-12-22T22:56:31.343Z,3.92
2018-12-22T22:58:58.867Z,3.10
2018-12-22T23:01:26.328Z,3.52
2018-12-22T23:03:53.793Z,2.72
2018-12-22T23:06:21.272Z,3.67
2018-12-22T23:08:48.746Z,2.65
2018-12-22T23:11:16.442Z,3.27
2018-12-22T23:13:44.109Z,3.77
2018-12-22T23:16:11.577Z,3.20
2018-12-22T23:18:39.013Z,3.40
2018-12-22T23:21:06.471Z,3.08
2018-12-22T23:23:33.921Z,4.37
2018-12-22T23:26:01.437Z,3.62
2018-12-22T23:28:28.868Z,3.55
2018-12-22T23:30:56.328Z,3.55
2018-12-22T23:33:23.782Z,2.90
2018-12-22T23:35:51.240Z,2.85
2018-12-22T23:38:18.681Z,3.10
2018-12-22T23:40:46.162Z,3.47
2018-12-22T23:43:13.604Z,3.47
2018-12-22T23:45:41.061Z,3.33
2018-12-22T23:48:08.508Z,3.40
2018-12-22T23:50:35.974Z,3.52
2018-12-22T23:53:03.407Z,3.25
2018-12-22T23:55:30.868Z,3.25
2018-12-22T23:57:58.325Z,3.15
